Time;durP1;ratioP1;P1;durP2;ratioP2;P2;SDS_P1;SDS_P2;PMS_P1;PMS_P2;Temp;Humidity;BMP_temperature;BMP_pressure;BME280_temperature;BME280_humidity;BME280_pressure;Samples;Min_cycle;Max_cycle;Signal;HPM_P1;HPM_P2
2022/03/05 00:00:26;;;;;;;7.80;2.83;;;-2.00;76.30;;;;;;4176890;28;20057;-73
2022/03/05 00:02:47;;;;;;;18.33;3.33;;;-2.00;76.20;;;;;;4181522;28;20106;-73
2022/03/05 00:05:10;;;;;;;8.32;2.00;;;-2.10;76.10;;;;;;4173050;28;20056;-73
2022/03/05 00:07:30;;;;;;;8.10;2.20;;;-2.10;76.00;;;;;;4180584;28;20033;-74
2022/03/05 00:09:51;;;;;;;7.30;1.63;;;-2.10;76.00;;;;;;4181633;28;20428;-73
2022/03/05 00:12:13;;;;;;;7.18;2.53;;;-2.10;76.00;;;;;;4180252;28;20076;-73
2022/03/05 00:14:33;;;;;;;8.35;2.05;;;-2.20;76.00;;;;;;4181066;28;20452;-73
2022/03/05 00:16:54;;;;;;;4.53;1.77;;;-2.20;76.10;;;;;;4186281;28;20067;-73
2022/03/05 00:19:16;;;;;;;7.65;1.63;;;-2.20;76.10;;;;;;4163426;28;20028;-74
2022/03/05 00:21:36;;;;;;;7.97;1.80;;;-2.20;76.10;;;;;;4183822;28;20032;-73
2022/03/05 00:23:58;;;;;;;5.97;1.95;;;-2.20;76.10;;;;;;4184902;28;20044;-74
2022/03/05 00:26:19;;;;;;;4.80;2.05;;;-2.20;76.20;;;;;;4186079;28;20036;-74
2022/03/05 00:28:40;;;;;;;7.85;1.60;;;-2.20;76.20;;;;;;4183215;28;20444;-73
2022/03/05 00:31:01;;;;;;;10.00;2.28;;;-2.30;76.20;;;;;;4183729;28;20033;-73
2022/03/05 00:33:22;;;;;;;5.50;1.80;;;-2.30;76.20;;;;;;4181799;28;20079;-74
2022/03/05 00:35:42;;;;;;;9.40;2.50;;;-2.30;76.40;;;;;;4170310;28;20065;-73
2022/03/05 00:38:03;;;;;;;13.65;2.45;;;-2.30;76.40;;;;;;4185633;28;20037;-73
2022/03/05 00:40:24;;;;;;;9.23;2.33;;;-2.30;76.40;;;;;;4188333;28;20056;-73
2022/03/05 00:42:45;;;;;;;8.95;2.33;;;-2.30;76.50;;;;;;4184186;28;20083;-74
2022/03/05 00:45:07;;;;;;;13.05;2.35;;;-2.30;76.60;;;;;;4183570;28;20036;-74
2022/03/05 00:47:27;;;;;;;8.73;2.50;;;-2.30;76.60;;;;;;4186368;28;20045;-74
2022/03/05 00:49:48;;;;;;;9.75;2.67;;;-2.30;76.60;;;;;;4184106;28;20373;-74
2022/03/05 00:52:09;;;;;;;10.65;2.55;;;-2.30;76.70;;;;;;4187206;28;20422;-74
2022/03/05 00:54:30;;;;;;;7.85;2.45;;;-2.30;76.60;;;;;;4186865;28;20068;-74
2022/03/05 00:56:51;;;;;;;9.18;2.10;;;-2.40;76.60;;;;;;4184306;28;20494;-74
2022/03/05 00:59:12;;;;;;;11.95;2.30;;;-2.40;76.70;;;;;;4183853;28;20071;-74
2022/03/05 01:01:33;;;;;;;12.80;2.42;;;-2.40;76.70;;;;;;4183365;28;20066;-74
2022/03/05 01:03:54;;;;;;;7.07;1.92;;;-2.40;76.70;;;;;;4184410;28;20052;-74
2022/03/05 01:06:15;;;;;;;4.85;1.52;;;-2.40;76.70;;;;;;4182260;28;20032;-74
2022/03/05 01:08:36;;;;;;;6.90;1.88;;;-2.40;76.60;;;;;;4186788;28;20055;-74
2022/03/05 01:10:57;;;;;;;6.72;2.17;;;-2.40;76.60;;;;;;4186594;28;20485;-74
2022/03/05 01:13:18;;;;;;;6.57;1.50;;;-2.40;77.40;;;;;;4184213;28;20123;-74
2022/03/05 01:15:39;;;;;;;6.60;1.35;;;-2.50;76.60;;;;;;4181311;28;20706;-74
2022/03/05 01:18:00;;;;;;;8.02;1.50;;;-2.50;76.70;;;;;;4185604;28;20045;-74
2022/03/05 01:20:20;;;;;;;8.52;1.63;;;-2.50;76.80;;;;;;4185876;28;20118;-73
2022/03/05 01:22:41;;;;;;;22.65;1.52;;;-2.50;76.80;;;;;;4185877;28;20059;-74
2022/03/05 01:25:03;;;;;;;6.53;1.65;;;-2.50;76.80;;;;;;4182636;28;20046;-74
2022/03/05 01:27:24;;;;;;;7.20;1.38;;;-2.50;76.80;;;;;;4182465;28;20033;-73
2022/03/05 01:29:44;;;;;;;7.38;1.25;;;-2.50;76.80;;;;;;4178633;28;20043;-74
2022/03/05 01:32:06;;;;;;;10.23;1.30;;;-2.50;76.80;;;;;;4185088;28;20059;-73
2022/03/05 01:34:27;;;;;;;12.93;1.42;;;-2.50;76.80;;;;;;4184990;28;20033;-73
2022/03/05 01:36:48;;;;;;;5.85;1.20;;;-2.50;76.80;;;;;;4183267;28;20082;-74
2022/03/05 01:39:08;;;;;;;6.20;1.20;;;-2.50;76.80;;;;;;4184001;28;20072;-73
2022/03/05 01:41:30;;;;;;;6.60;1.30;;;-2.50;76.80;;;;;;4178837;28;20057;-73
2022/03/05 01:43:52;;;;;;;9.00;1.15;;;-2.50;76.80;;;;;;4186985;28;20049;-74
2022/03/05 01:46:13;;;;;;;9.15;1.15;;;-2.50;76.80;;;;;;4184085;28;20409;-74
2022/03/05 01:48:34;;;;;;;11.43;1.70;;;-2.60;76.80;;;;;;4182551;28;20041;-74
2022/03/05 01:50:55;;;;;;;11.55;1.55;;;-2.60;76.70;;;;;;4174743;28;20227;-74
2022/03/05 01:53:16;;;;;;;4.20;1.13;;;-2.60;76.70;;;;;;4186688;28;20047;-73
2022/03/05 01:55:37;;;;;;;6.95;1.35;;;-2.60;76.70;;;;;;4183095;28;20964;-73
2022/03/05 01:57:58;;;;;;;3.45;1.10;;;-2.60;76.70;;;;;;4180439;28;20044;-74
2022/03/05 02:00:19;;;;;;;6.35;0.88;;;-2.60;76.70;;;;;;4169542;28;20025;-74
2022/03/05 02:02:41;;;;;;;5.07;1.40;;;-2.60;77.50;;;;;;4179967;28;20041;-73
2022/03/05 02:05:02;;;;;;;5.43;1.13;;;-2.70;76.70;;;;;;4182727;28;20509;-74
2022/03/05 02:07:23;;;;;;;5.93;1.40;;;-2.70;76.70;;;;;;4182727;28;20029;-73
2022/03/05 02:09:44;;;;;;;6.00;0.90;;;-2.70;76.70;;;;;;4183882;28;20043;-74
2022/03/05 02:12:05;;;;;;;5.22;1.15;;;-2.70;76.70;;;;;;4189026;28;20082;-74
2022/03/05 02:14:26;;;;;;;8.45;1.60;;;-2.70;76.70;;;;;;4180835;28;20036;-73
2022/03/05 02:16:47;;;;;;;6.13;1.33;;;-2.70;76.70;;;;;;4181510;28;21539;-73
2022/03/05 02:19:09;;;;;;;7.60;1.23;;;-2.70;76.70;;;;;;4168265;28;20445;-73
2022/03/05 02:21:29;;;;;;;9.52;1.55;;;-2.80;76.70;;;;;;4185676;28;20041;-73
2022/03/05 02:23:50;;;;;;;7.00;1.30;;;-2.80;76.70;;;;;;4170498;28;20486;-73
2022/03/05 02:26:11;;;;;;;5.57;1.23;;;-2.80;76.70;;;;;;4167484;28;20060;-73
2022/03/05 02:28:33;;;;;;;7.95;1.02;;;-2.80;76.70;;;;;;4187675;28;20039;-74
2022/03/05 02:30:54;;;;;;;3.40;0.93;;;-2.80;76.60;;;;;;4181582;28;20021;-73
2022/03/05 02:33:15;;;;;;;9.52;1.55;;;-2.80;76.60;;;;;;4163789;28;20115;-73
2022/03/05 02:35:36;;;;;;;4.85;1.13;;;-2.90;76.60;;;;;;4184726;28;20050;-74
2022/03/05 02:37:57;;;;;;;6.82;1.05;;;-2.90;76.40;;;;;;4181527;28;20036;-73
2022/03/05 02:40:18;;;;;;;4.97;1.15;;;-2.90;76.40;;;;;;4182441;28;20055;-74
2022/03/05 02:42:38;;;;;;;5.20;0.85;;;-2.90;76.50;;;;;;4187023;28;20486;-74
2022/03/05 02:44:59;;;;;;;6.80;0.80;;;-2.90;76.60;;;;;;4184648;28;20048;-73
2022/03/05 02:47:20;;;;;;;5.15;1.05;;;-2.90;76.70;;;;;;4180840;28;20087;-73
2022/03/05 02:49:41;;;;;;;6.38;1.42;;;-3.00;76.70;;;;;;4186593;28;20033;-73
2022/03/05 02:52:03;;;;;;;7.47;1.33;;;-3.00;76.80;;;;;;4185541;28;20040;-73
2022/03/05 02:54:24;;;;;;;9.32;1.27;;;-3.00;76.90;;;;;;4184231;28;20123;-74
2022/03/05 02:56:45;;;;;;;8.25;1.08;;;-3.00;76.90;;;;;;4182338;28;20040;-74
2022/03/05 02:59:06;;;;;;;8.45;1.40;;;-3.00;77.60;;;;;;4196604;28;20040;-74
2022/03/05 03:01:26;;;;;;;3.20;0.90;;;-3.00;76.90;;;;;;4183762;28;20053;-73
2022/03/05 03:03:47;;;;;;;7.18;0.90;;;-3.00;76.90;;;;;;4171148;28;20050;-73
2022/03/05 03:06:08;;;;;;;5.10;0.82;;;-3.00;77.00;;;;;;4182939;28;20827;-74
2022/03/05 03:08:29;;;;;;;3.08;0.93;;;-3.00;77.00;;;;;;4180063;28;20033;-73
2022/03/05 03:10:50;;;;;;;5.05;1.05;;;-3.00;77.10;;;;;;4184198;28;20100;-73
2022/03/05 03:13:11;;;;;;;7.63;1.15;;;-3.00;77.20;;;;;;4185168;28;20437;-74
2022/03/05 03:15:32;;;;;;;8.93;1.33;;;-3.00;77.40;;;;;;4183233;28;20033;-74
2022/03/05 03:17:53;;;;;;;14.95;1.38;;;-3.00;77.50;;;;;;4187847;28;20024;-74
2022/03/05 03:20:16;;;;;;;9.23;1.15;;;-3.00;77.50;;;;;;4181398;28;20051;-74
2022/03/05 03:22:37;;;;;;;2.92;0.85;;;-3.00;77.40;;;;;;4183105;28;20052;-74
2022/03/05 03:24:57;;;;;;;5.80;1.20;;;-3.00;77.30;;;;;;4180216;28;20044;-74
2022/03/05 03:27:18;;;;;;;2.92;0.90;;;-2.90;77.30;;;;;;4167282;28;20121;-74
2022/03/05 03:29:39;;;;;;;4.47;0.93;;;-2.90;77.30;;;;;;4182107;28;20033;-74
2022/03/05 03:32:00;;;;;;;3.92;1.05;;;-2.90;77.30;;;;;;4184520;28;20583;-74
2022/03/05 03:34:21;;;;;;;6.07;0.80;;;-2.90;77.30;;;;;;4181869;28;20028;-73
2022/03/05 03:36:42;;;;;;;4.28;0.82;;;-2.90;77.30;;;;;;4179010;28;20040;-74
2022/03/05 03:39:03;;;;;;;5.57;1.13;;;-2.90;77.30;;;;;;4182713;28;20111;-74
2022/03/05 03:41:24;;;;;;;3.03;0.88;;;-2.90;77.30;;;;;;4184035;28;20043;-73
2022/03/05 03:43:45;;;;;;;5.93;0.93;;;-2.90;77.30;;;;;;4183892;28;20040;-74
2022/03/05 03:46:09;;;;;;;4.15;0.85;;;-2.90;77.30;;;;;;4178264;28;20119;-74
2022/03/05 03:48:30;;;;;;;6.47;0.90;;;-2.80;77.50;;;;;;4193560;28;20101;-74
2022/03/05 03:50:51;;;;;;;10.73;1.10;;;-2.80;77.60;;;;;;4180301;28;20036;-73
2022/03/05 03:53:12;;;;;;;6.90;1.20;;;-2.70;77.80;;;;;;4183594;28;20032;-74
2022/03/05 03:55:33;;;;;;;5.32;0.90;;;-2.70;77.80;;;;;;4185254;28;20028;-74
2022/03/05 03:57:54;;;;;;;4.28;0.93;;;-2.60;78.00;;;;;;4184363;28;20040;-73
2022/03/05 04:00:18;;;;;;;3.00;0.85;;;-2.50;78.20;;;;;;4182939;28;20025;-73
2022/03/05 04:02:40;;;;;;;4.68;1.10;;;-2.50;78.30;;;;;;4178500;28;20123;-74
2022/03/05 04:05:00;;;;;;;3.70;0.95;;;-2.40;78.50;;;;;;4184571;28;20044;-74
2022/03/05 04:10:05;;;;;;;9.25;1.27;;;-2.20;78.70;;;;;;4180726;28;20029;-73
2022/03/05 04:12:26;;;;;;;7.43;1.25;;;-2.20;78.70;;;;;;4180991;28;20115;-74
2022/03/05 04:14:47;;;;;;;2.78;0.80;;;-2.10;78.80;;;;;;4181703;28;20025;-73
2022/03/05 04:17:08;;;;;;;2.63;0.70;;;-2.00;78.90;;;;;;4182209;28;20040;-74
2022/03/05 04:19:29;;;;;;;5.50;1.10;;;-1.90;78.90;;;;;;4183622;28;20055;-74
2022/03/05 04:21:50;;;;;;;6.25;1.10;;;-1.90;78.80;;;;;;4177047;28;20043;-74
2022/03/05 04:24:11;;;;;;;3.95;0.93;;;-1.80;79.60;;;;;;4181570;28;20399;-74
2022/03/05 04:26:32;;;;;;;2.80;0.70;;;-1.70;78.90;;;;;;4178337;28;20034;-74
2022/03/05 04:28:53;;;;;;;3.53;0.70;;;-1.60;78.90;;;;;;4181707;28;20033;-74
2022/03/05 04:31:14;;;;;;;4.70;0.88;;;-1.60;78.80;;;;;;4179409;28;20104;-74
2022/03/05 04:33:34;;;;;;;5.20;1.05;;;-1.50;78.80;;;;;;4180633;28;20029;-74
2022/03/05 04:35:55;;;;;;;3.70;0.98;;;-1.40;78.70;;;;;;4181544;28;20036;-74
2022/03/05 04:38:16;;;;;;;3.33;1.35;;;-1.40;78.60;;;;;;4179713;28;20025;-74
2022/03/05 04:40:37;;;;;;;3.45;0.52;;;-1.40;78.50;;;;;;4185286;28;20109;-74
2022/03/05 04:42:59;;;;;;;4.32;0.80;;;-1.30;78.40;;;;;;4181271;28;20710;-73
2022/03/05 04:45:20;;;;;;;2.03;0.82;;;-1.30;78.30;;;;;;4184239;28;20621;-74
2022/03/05 04:47:41;;;;;;;5.72;0.80;;;-1.20;78.20;;;;;;4180157;28;20072;-74
2022/03/05 04:50:03;;;;;;;4.07;0.80;;;-1.20;78.10;;;;;;4179062;28;20040;-73
2022/03/05 04:52:24;;;;;;;6.22;0.82;;;-1.20;78.00;;;;;;4181627;28;20048;-73
2022/03/05 04:54:45;;;;;;;8.38;1.23;;;-1.10;78.00;;;;;;4180573;28;20033;-74
2022/03/05 04:57:06;;;;;;;5.32;0.70;;;-1.10;77.90;;;;;;4178871;28;20152;-74
2022/03/05 04:59:27;;;;;;;4.65;0.80;;;-1.10;77.80;;;;;;4183691;28;20032;-74
2022/03/05 05:01:48;;;;;;;5.07;1.15;;;-1.00;77.90;;;;;;4185196;28;20444;-74
2022/03/05 05:04:09;;;;;;;7.40;0.93;;;-1.00;78.50;;;;;;4182048;28;20068;-74
2022/03/05 05:06:30;;;;;;;3.65;0.60;;;-1.00;77.80;;;;;;4182108;28;20051;-74
2022/03/05 05:08:51;;;;;;;3.10;0.82;;;-0.90;77.80;;;;;;4180451;28;20506;-74
2022/03/05 05:11:15;;;;;;;4.25;0.77;;;-0.90;77.70;;;;;;4184696;28;20052;-74
2022/03/05 05:13:36;;;;;;;6.03;0.70;;;-0.80;77.80;;;;;;4181910;28;20048;-74
2022/03/05 05:15:57;;;;;;;3.50;0.93;;;-0.80;77.70;;;;;;4183757;28;20111;-74
2022/03/05 05:18:18;;;;;;;3.83;0.80;;;-0.70;77.70;;;;;;4183971;28;20028;-74
2022/03/05 05:20:39;;;;;;;4.13;0.88;;;-0.70;77.60;;;;;;4183372;28;20761;-74
2022/03/05 05:23:00;;;;;;;5.95;1.10;;;-0.70;77.50;;;;;;4186766;28;20066;-74
2022/03/05 05:25:20;;;;;;;4.55;0.98;;;-0.70;77.40;;;;;;4186217;28;20726;-73
2022/03/05 05:27:41;;;;;;;5.03;0.70;;;-0.60;77.40;;;;;;4189444;28;20037;-74
2022/03/05 05:30:03;;;;;;;5.05;0.90;;;-0.60;77.30;;;;;;4184531;28;20040;-74
2022/03/05 05:32:24;;;;;;;1.55;0.70;;;-0.60;77.20;;;;;;4189935;28;20036;-74
2022/03/05 05:34:45;;;;;;;4.15;0.90;;;-0.50;77.10;;;;;;4185466;28;20043;-74
2022/03/05 05:37:06;;;;;;;2.20;0.70;;;-0.50;77.10;;;;;;4184043;28;20043;-74
2022/03/05 05:39:27;;;;;;;4.15;1.10;;;-0.50;77.00;;;;;;4183679;28;20105;-74
2022/03/05 05:41:48;;;;;;;5.85;1.05;;;-0.40;77.00;;;;;;4179467;28;20076;-74
2022/03/05 05:44:10;;;;;;;3.00;1.05;;;-0.40;76.90;;;;;;4182205;28;20032;-73
2022/03/05 05:46:31;;;;;;;7.28;1.00;;;-0.40;76.80;;;;;;4181072;28;20475;-74
2022/03/05 05:48:52;;;;;;;2.78;0.90;;;-0.40;76.80;;;;;;4185480;28;20208;-72
2022/03/05 05:51:13;;;;;;;3.25;0.77;;;-0.30;76.70;;;;;;4186541;28;20025;-72
2022/03/05 05:53:34;;;;;;;5.15;0.90;;;-0.30;76.70;;;;;;4182937;28;20116;-73
2022/03/05 05:55:55;;;;;;;2.28;0.77;;;-0.40;76.50;;;;;;4187903;28;20043;-72
2022/03/05 05:58:16;;;;;;;3.60;0.75;;;-0.30;76.50;;;;;;4169734;28;20067;-73
2022/03/05 06:00:37;;;;;;;5.13;1.00;;;-0.30;76.50;;;;;;4184470;28;20858;-72
2022/03/05 06:02:58;;;;;;;3.67;1.00;;;-0.30;76.40;;;;;;4178295;28;20194;-72
2022/03/05 06:05:19;;;;;;;2.25;0.95;;;-0.30;76.40;;;;;;4185141;28;20028;-72
2022/03/05 06:07:39;;;;;;;1.83;0.70;;;-0.30;76.40;;;;;;4183789;28;20041;-72
2022/03/05 06:10:00;;;;;;;6.22;0.90;;;-0.20;76.30;;;;;;4186163;28;20083;-72
2022/03/05 06:12:21;;;;;;;4.53;1.13;;;-0.20;76.30;;;;;;4174890;28;20065;-72
2022/03/05 06:14:45;;;;;;;3.63;1.00;;;-0.10;76.30;;;;;;4182453;28;20032;-72
2022/03/05 06:17:08;;;;;;;6.18;1.20;;;-0.20;76.30;;;;;;4182331;28;20041;-72
2022/03/05 06:19:29;;;;;;;3.40;1.10;;;-0.10;76.20;;;;;;4184813;28;20111;-72
2022/03/05 06:21:50;;;;;;;6.32;1.13;;;-0.20;76.20;;;;;;4182282;28;20367;-73
2022/03/05 06:24:12;;;;;;;1.42;0.70;;;-0.20;76.20;;;;;;4184015;28;20028;-73
2022/03/05 06:26:32;;;;;;;6.13;1.05;;;-0.10;76.20;;;;;;4182599;28;20041;-72
2022/03/05 06:28:54;;;;;;;6.40;0.93;;;-0.10;76.30;;;;;;4172193;28;20091;-73
2022/03/05 06:31:15;;;;;;;6.35;1.20;;;-0.10;76.20;;;;;;4186130;28;20530;-72
2022/03/05 06:33:36;;;;;;;2.17;0.90;;;-0.10;76.10;;;;;;4182528;28;20044;-72
2022/03/05 06:35:58;;;;;;;3.10;0.98;;;0.00;76.10;;;;;;4181446;28;20055;-72
2022/03/05 06:38:18;;;;;;;6.13;1.10;;;0.00;76.00;;;;;;4185047;28;20042;-72
2022/03/05 06:40:39;;;;;;;5.20;0.90;;;0.00;76.00;;;;;;4184871;28;20658;-72
2022/03/05 06:43:00;;;;;;;3.97;0.90;;;0.10;76.00;;;;;;4185630;28;20033;-72
2022/03/05 06:45:21;;;;;;;3.90;0.95;;;0.20;76.00;;;;;;4186008;28;20615;-72
2022/03/05 06:47:42;;;;;;;3.33;0.90;;;0.20;75.90;;;;;;4181537;28;20054;-72
2022/03/05 06:50:04;;;;;;;1.60;0.70;;;0.20;75.80;;;;;;4185127;28;20147;-72
2022/03/05 06:52:25;;;;;;;3.42;1.13;;;0.30;75.90;;;;;;4180893;28;20039;-72
2022/03/05 06:54:46;;;;;;;5.00;1.15;;;0.30;75.80;;;;;;4177490;28;20047;-72
2022/03/05 06:57:07;;;;;;;4.38;1.27;;;0.30;75.70;;;;;;4184783;28;20061;-72
2022/03/05 06:59:28;;;;;;;4.70;1.30;;;0.40;75.60;;;;;;4183284;28;20033;-73
2022/03/05 07:01:49;;;;;;;3.42;0.80;;;0.40;75.50;;;;;;4182246;28;20028;-73
2022/03/05 07:04:10;;;;;;;4.78;1.30;;;0.50;75.60;;;;;;4184161;28;20032;-73
2022/03/05 07:06:31;;;;;;;2.30;0.80;;;0.50;75.50;;;;;;4177434;28;20036;-73
2022/03/05 07:08:52;;;;;;;4.47;1.10;;;0.50;75.50;;;;;;4183129;28;20406;-72
2022/03/05 07:11:13;;;;;;;6.03;2.75;;;0.60;75.50;;;;;;4180923;28;20033;-72
2022/03/05 07:13:34;;;;;;;4.85;2.05;;;0.60;75.40;;;;;;4187593;28;20044;-72
2022/03/05 07:15:55;;;;;;;6.35;3.13;;;0.70;75.50;;;;;;4184945;28;20074;-72
2022/03/05 07:18:16;;;;;;;9.80;3.35;;;0.70;75.40;;;;;;4165769;28;20073;-73
2022/03/05 07:20:37;;;;;;;4.60;1.65;;;0.80;75.40;;;;;;4179432;28;20062;-73
2022/03/05 07:22:58;;;;;;;4.43;1.38;;;0.90;75.50;;;;;;4181730;28;20037;-73
2022/03/05 07:25:19;;;;;;;3.20;0.93;;;0.90;75.30;;;;;;4183132;28;20115;-72
2022/03/05 07:27:40;;;;;;;4.00;1.13;;;0.90;75.30;;;;;;4180296;28;20033;-73
2022/03/05 07:30:00;;;;;;;4.45;1.05;;;1.00;75.20;;;;;;4181378;28;20451;-72
2022/03/05 07:32:21;;;;;;;4.07;0.98;;;1.00;75.00;;;;;;4178483;28;20033;-72
2022/03/05 07:34:42;;;;;;;3.92;1.33;;;1.10;74.90;;;;;;4181310;28;20040;-72
2022/03/05 07:37:03;;;;;;;5.53;1.55;;;1.10;74.80;;;;;;4183203;28;20033;-72
2022/03/05 07:39:24;;;;;;;3.03;1.10;;;1.20;74.80;;;;;;4184213;28;20036;-73
2022/03/05 07:41:45;;;;;;;9.30;3.20;;;1.20;74.70;;;;;;4192319;28;20496;-72
2022/03/05 07:44:06;;;;;;;5.85;2.28;;;1.30;74.70;;;;;;4183617;28;20114;-72
2022/03/05 07:46:27;;;;;;;8.73;2.42;;;1.30;74.70;;;;;;4171302;28;20040;-73
2022/03/05 07:48:48;;;;;;;3.42;2.13;;;1.40;74.80;;;;;;4176368;28;20598;-73
2022/03/05 07:51:09;;;;;;;7.15;1.80;;;1.40;74.70;;;;;;4180983;28;20035;-73
2022/03/05 07:53:33;;;;;;;3.67;1.30;;;1.50;74.70;;;;;;4183654;28;20512;-73
2022/03/05 07:55:54;;;;;;;4.32;1.60;;;1.50;74.70;;;;;;4186769;28;20036;-72
2022/03/05 07:58:15;;;;;;;4.03;1.40;;;1.60;74.60;;;;;;4178676;28;20028;-72
2022/03/05 08:00:36;;;;;;;5.07;2.00;;;1.60;74.60;;;;;;4182618;28;20124;-72
2022/03/05 08:02:57;;;;;;;5.05;2.20;;;1.70;74.70;;;;;;4183983;28;20072;-73
2022/03/05 08:05:18;;;;;;;4.70;1.90;;;1.80;74.70;;;;;;4181102;28;20112;-72
2022/03/05 08:07:39;;;;;;;5.82;1.77;;;1.80;74.50;;;;;;4180102;28;20033;-72
2022/03/05 08:10:00;;;;;;;5.47;1.70;;;1.90;74.50;;;;;;4181438;28;20044;-72
2022/03/05 08:12:21;;;;;;;4.25;1.58;;;1.90;74.40;;;;;;4181192;28;20037;-73
2022/03/05 08:14:44;;;;;;;13.30;4.45;;;2.00;74.40;;;;;;4185017;28;20036;-73
2022/03/05 08:17:05;;;;;;;4.87;2.00;;;2.00;74.30;;;;;;4163735;28;20596;-73
2022/03/05 08:19:26;;;;;;;4.55;1.67;;;2.10;74.10;;;;;;4167832;28;20124;-72
2022/03/05 08:21:47;;;;;;;3.75;2.15;;;2.10;74.00;;;;;;4182809;28;20032;-73
2022/03/05 08:24:08;;;;;;;4.30;1.52;;;2.10;73.70;;;;;;4191057;28;20753;-73
2022/03/05 08:26:29;;;;;;;5.90;1.73;;;2.20;73.60;;;;;;4181068;28;20029;-73
2022/03/05 08:28:50;;;;;;;6.43;1.45;;;2.20;73.50;;;;;;4176846;28;20088;-72
2022/03/05 08:31:11;;;;;;;7.68;1.92;;;2.20;73.40;;;;;;4181799;28;20079;-73
2022/03/05 08:33:32;;;;;;;11.00;3.88;;;2.30;73.50;;;;;;4182200;28;20457;-73
2022/03/05 08:35:53;;;;;;;7.72;1.92;;;2.30;73.50;;;;;;4185336;28;20417;-73
2022/03/05 08:38:14;;;;;;;5.18;1.60;;;2.30;73.20;;;;;;4182704;28;20060;-73
2022/03/05 08:40:35;;;;;;;4.20;1.50;;;2.40;73.30;;;;;;4186663;28;20024;-73
2022/03/05 08:42:56;;;;;;;3.38;1.02;;;2.40;73.20;;;;;;4186644;28;20476;-73
2022/03/05 08:45:17;;;;;;;9.90;1.60;;;2.40;72.90;;;;;;4183419;28;20040;-72
2022/03/05 08:47:38;;;;;;;3.28;1.08;;;2.40;72.80;;;;;;4185948;28;20112;-73
2022/03/05 08:49:59;;;;;;;8.02;1.38;;;2.50;73.10;;;;;;4183372;28;20087;-73
2022/03/05 08:52:20;;;;;;;4.22;1.33;;;2.50;73.10;;;;;;4193905;28;20028;-73
2022/03/05 08:54:41;;;;;;;4.68;1.10;;;2.60;73.70;;;;;;4189365;28;20028;-73
2022/03/05 08:57:09;;;;;;;3.42;0.85;;;2.60;72.90;;;;;;4185523;28;20103;-73
2022/03/05 08:59:29;;;;;;;4.85;1.35;;;2.70;72.80;;;;;;4186632;28;20037;-73
2022/03/05 09:01:50;;;;;;;4.55;1.23;;;2.80;72.80;;;;;;4187007;28;20029;-73
2022/03/05 09:04:12;;;;;;;4.00;0.90;;;2.80;72.60;;;;;;4185735;28;20045;-73
2022/03/05 09:06:35;;;;;;;10.23;1.33;;;2.90;72.30;;;;;;4187164;28;20088;-73
2022/03/05 09:08:57;;;;;;;3.05;1.05;;;3.00;72.10;;;;;;4186022;28;20064;-73
2022/03/05 09:11:20;;;;;;;4.25;1.05;;;3.00;71.60;;;;;;4189271;28;20062;-73
2022/03/05 09:13:41;;;;;;;7.57;1.13;;;3.00;71.20;;;;;;4184360;28;20036;-72
2022/03/05 09:16:02;;;;;;;4.13;1.42;;;3.10;70.70;;;;;;4183990;28;20068;-73
2022/03/05 09:18:23;;;;;;;4.88;1.45;;;3.10;70.50;;;;;;4184145;28;20442;-73
2022/03/05 09:20:47;;;;;;;4.38;1.35;;;3.10;70.20;;;;;;4191929;28;20024;-73
2022/03/05 09:23:08;;;;;;;2.22;1.08;;;3.20;70.00;;;;;;4177519;28;20048;-73
2022/03/05 09:25:29;;;;;;;8.57;1.13;;;3.30;70.30;;;;;;4189760;28;20037;-73
2022/03/05 09:27:50;;;;;;;4.75;1.50;;;3.30;70.00;;;;;;4171782;28;20580;-73
2022/03/05 09:30:14;;;;;;;2.28;1.00;;;3.30;69.80;;;;;;4184519;28;20044;-73
2022/03/05 09:32:38;;;;;;;3.97;1.00;;;3.40;69.80;;;;;;4187730;28;20024;-73
2022/03/05 09:34:59;;;;;;;3.33;1.27;;;3.50;69.80;;;;;;4185525;28;20116;-73
2022/03/05 09:37:20;;;;;;;4.45;1.00;;;3.50;69.20;;;;;;4185065;28;20391;-73
2022/03/05 09:39:41;;;;;;;5.28;1.23;;;3.60;69.10;;;;;;4183897;28;20036;-73
2022/03/05 09:42:04;;;;;;;7.28;1.40;;;3.70;69.50;;;;;;4189311;28;20033;-73
2022/03/05 09:44:25;;;;;;;3.10;1.40;;;3.70;68.20;;;;;;4186426;28;20182;-73
2022/03/05 09:46:49;;;;;;;4.75;1.17;;;3.80;67.20;;;;;;4185552;28;20025;-72
2022/03/05 09:49:09;;;;;;;4.85;1.42;;;3.80;67.80;;;;;;4185896;28;20064;-73
2022/03/05 09:51:31;;;;;;;4.55;1.48;;;3.90;67.50;;;;;;4189339;28;20199;-73
2022/03/05 09:53:53;;;;;;;5.22;1.58;;;3.90;66.70;;;;;;4190872;28;20055;-73
2022/03/05 09:56:14;;;;;;;5.28;1.95;;;3.90;66.00;;;;;;4184922;28;20056;-73
2022/03/05 09:58:34;;;;;;;5.35;1.55;;;3.90;65.80;;;;;;4186442;28;20459;-73
2022/03/05 10:00:55;;;;;;;5.55;1.80;;;3.90;66.70;;;;;;4179814;28;20037;-72
2022/03/05 10:03:16;;;;;;;5.38;1.27;;;3.90;67.20;;;;;;4181614;28;20072;-73
2022/03/05 10:05:40;;;;;;;8.77;1.77;;;3.90;65.70;;;;;;4166329;28;20070;-73
2022/03/05 10:08:13;;;;;;;5.45;1.30;;;3.90;64.60;;;;;;4179320;28;20456;-73
2022/03/05 10:10:44;;;;;;;5.22;1.20;;;3.90;63.50;;;;;;4182372;28;20062;-73
2022/03/05 10:13:28;;;;;;;3.08;1.15;;;3.90;62.70;;;;;;4180368;28;20482;-73
2022/03/05 10:15:53;;;;;;;3.75;1.27;;;3.90;64.00;;;;;;4183063;28;20043;-73
2022/03/05 10:18:14;;;;;;;3.83;1.25;;;3.90;64.50;;;;;;4187206;28;20032;-73
2022/03/05 10:20:46;;;;;;;4.78;1.30;;;3.90;63.20;;;;;;4180394;28;20246;-73
2022/03/05 10:23:08;;;;;;;5.68;1.40;;;3.90;62.70;;;;;;4169480;28;20130;-73
2022/03/05 10:25:41;;;;;;;7.90;0.85;;;3.90;62.00;;;;;;4182165;28;20240;-73
2022/03/05 10:28:05;;;;;;;4.65;1.35;;;3.90;62.50;;;;;;4169799;28;20040;-73
2022/03/05 10:30:30;;;;;;;4.38;1.27;;;4.00;61.90;;;;;;4183380;28;20059;-73
2022/03/05 10:32:51;;;;;;;3.10;1.00;;;4.00;64.00;;;;;;4186450;28;20036;-73
2022/03/05 10:35:11;;;;;;;5.55;0.90;;;4.00;63.90;;;;;;4182579;28;20115;-72
2022/03/05 10:37:33;;;;;;;5.32;0.90;;;4.10;63.80;;;;;;4181551;28;20036;-73
2022/03/05 10:39:54;;;;;;;5.82;1.48;;;4.00;62.10;;;;;;4183421;28;20244;-73
2022/03/05 10:42:15;;;;;;;6.07;0.98;;;4.00;61.60;;;;;;4185157;28;20041;-73
2022/03/05 10:44:36;;;;;;;2.92;0.73;;;4.00;62.20;;;;;;4186301;28;20039;-73
2022/03/05 10:47:01;;;;;;;5.13;0.95;;;4.00;61.90;;;;;;4182755;28;20502;-73
2022/03/05 10:49:26;;;;;;;3.35;1.20;;;4.00;61.30;;;;;;4168276;28;20426;-73
2022/03/05 10:51:47;;;;;;;3.50;0.98;;;4.10;61.40;;;;;;4182609;28;20426;-73
2022/03/05 10:54:09;;;;;;;3.80;1.00;;;4.00;60.50;;;;;;4182762;28;20072;-73
2022/03/05 10:56:34;;;;;;;5.55;1.10;;;4.00;60.30;;;;;;4190226;28;20112;-73
2022/03/05 10:59:11;;;;;;;7.88;1.50;;;4.00;60.70;;;;;;4187341;28;20067;-73
2022/03/05 11:01:37;;;;;;;2.42;0.98;;;4.00;60.40;;;;;;4188477;28;20032;-73
2022/03/05 11:03:58;;;;;;;1.38;0.63;;;4.00;60.20;;;;;;4184589;28;20072;-73
2022/03/05 11:06:23;;;;;;;3.17;1.02;;;4.00;59.40;;;;;;4182361;28;20050;-73
2022/03/05 11:08:44;;;;;;;;;;;4.00;59.50;;;;;;4183086;28;20490;-73
2022/03/05 11:11:05;;;;;;;4.63;0.90;;;4.00;60.00;;;;;;4182061;28;19912;-73
2022/03/05 11:13:28;;;;;;;2.97;0.68;;;4.00;59.70;;;;;;4171571;28;20032;-73
2022/03/05 11:15:49;;;;;;;4.28;0.77;;;3.90;58.50;;;;;;4179010;28;20353;-73
2022/03/05 11:18:09;;;;;;;3.35;0.90;;;3.90;58.80;;;;;;4157358;28;20030;-73
2022/03/05 11:20:31;;;;;;;6.82;1.85;;;3.90;58.80;;;;;;4181392;28;20429;-73
2022/03/05 11:22:52;;;;;;;4.10;1.23;;;3.90;58.60;;;;;;4185792;28;20040;-73
2022/03/05 11:25:15;;;;;;;7.07;1.15;;;3.90;58.60;;;;;;4183013;28;20061;-73
2022/03/05 11:27:36;;;;;;;4.70;1.10;;;3.90;58.40;;;;;;4182962;28;20477;-73
2022/03/05 11:29:58;;;;;;;7.28;1.67;;;3.90;58.30;;;;;;4185208;28;20032;-73
2022/03/05 11:32:19;;;;;;;12.88;2.28;;;3.90;58.60;;;;;;4188919;28;20492;-73
2022/03/05 11:34:44;;;;;;;8.27;1.80;;;3.90;58.30;;;;;;4185540;28;20032;-73
2022/03/05 11:37:05;;;;;;;5.07;1.83;;;3.90;57.90;;;;;;4179078;28;20565;-73
2022/03/05 11:39:31;;;;;;;4.50;1.58;;;3.90;57.90;;;;;;4171332;28;20029;-73
2022/03/05 11:41:54;;;;;;;4.10;1.50;;;3.90;57.70;;;;;;4181809;28;20052;-72
2022/03/05 12:09:40;;;;;;;8.93;3.08;;;2.40;58.40;;;;;;4186665;28;20785;-74
2022/03/05 12:12:03;;;;;;;5.95;2.10;;;2.30;59.00;;;;;;4140439;27;20048;-72
2022/03/05 12:14:24;;;;;;;4.97;1.83;;;2.30;59.60;;;;;;4147347;28;20049;-72
2022/03/05 12:26:51;;;;;;;13.52;1.20;;;2.40;59.30;;;;;;4155233;27;20145;-73
2022/03/05 12:29:15;;;;;;;5.45;0.85;;;2.40;60.10;;;;;;4154083;28;20037;-74
2022/03/05 12:31:40;;;;;;;3.95;0.80;;;2.40;60.30;;;;;;4147014;28;20808;-72
2022/03/05 12:34:01;;;;;;;2.45;0.70;;;2.60;59.90;;;;;;4144547;28;21262;-72
2022/03/05 12:36:22;;;;;;;2.00;0.50;;;2.70;59.80;;;;;;4162380;28;20044;-72
2022/03/05 12:38:43;;;;;;;3.22;0.70;;;2.90;59.60;;;;;;4152174;28;20471;-73
2022/03/05 12:41:04;;;;;;;2.60;0.50;;;3.10;59.00;;;;;;4162988;28;20099;-73
2022/03/05 12:43:25;;;;;;;2.85;0.90;;;3.20;59.30;;;;;;4185742;28;20067;-73
2022/03/05 12:45:48;;;;;;;1.85;0.50;;;3.30;58.80;;;;;;4165864;28;20593;-72
2022/03/05 12:48:10;;;;;;;2.38;0.65;;;3.50;58.70;;;;;;4151389;28;20037;-72
2022/03/05 12:50:32;;;;;;;2.33;0.73;;;3.60;58.50;;;;;;4164200;28;20032;-72
2022/03/05 12:53:03;;;;;;;2.40;0.50;;;3.60;58.00;;;;;;4163834;28;20402;-72
2022/03/05 12:55:27;;;;;;;3.75;0.65;;;3.60;57.40;;;;;;4164717;28;20113;-72
2022/03/05 12:57:48;;;;;;;6.15;0.60;;;3.70;57.60;;;;;;4176928;28;20464;-72